createdAt,value
2023-02-12T00:01:32.116Z,19.40
2023-02-12T00:04:24.862Z,19.50
2023-02-12T00:07:17.810Z,18.70
2023-02-12T00:10:11.796Z,20.00
2023-02-12T00:13:04.550Z,18.00
2023-02-12T00:15:57.673Z,16.90
2023-02-12T00:18:49.798Z,20.50
2023-02-12T00:21:42.597Z,20.50
2023-02-12T00:24:37.051Z,19.40
2023-02-12T00:27:29.268Z,18.20
2023-02-12T00:30:22.524Z,18.70
2023-02-12T00:33:15.355Z,17.50
2023-02-12T00:36:10.440Z,17.30
2023-02-12T00:39:03.720Z,18.00
2023-02-12T00:41:56.590Z,17.90
2023-02-12T00:44:49.552Z,17.30
2023-02-12T00:47:42.318Z,16.70
2023-02-12T00:50:35.483Z,17.10
2023-02-12T00:53:28.276Z,17.10
2023-02-12T00:56:21.723Z,17.20
2023-02-12T00:59:14.498Z,16.10
2023-02-12T01:02:07.305Z,14.60
2023-02-12T01:05:00.168Z,14.40
2023-02-12T01:07:50.218Z,14.80
2023-02-12T01:10:43.385Z,15.40
2023-02-12T01:13:37.716Z,14.40
2023-02-12T01:16:33.886Z,13.90
2023-02-12T01:19:20.568Z,13.30
2023-02-12T01:22:13.512Z,13.70
2023-02-12T01:25:08.795Z,13.00
2023-02-12T01:28:01.575Z,14.20
2023-02-12T01:30:55.786Z,14.50
2023-02-12T01:33:51.083Z,14.70
2023-02-12T01:36:46.139Z,15.10
2023-02-12T01:39:39.117Z,14.60
2023-02-12T01:42:36.303Z,13.10
2023-02-12T01:45:56.873Z,13.50
2023-02-12T01:48:50.998Z,13.60
2023-02-12T01:51:44.776Z,14.10
2023-02-12T01:54:39.140Z,13.10
2023-02-12T01:57:37.652Z,13.00
2023-02-12T02:00:30.649Z,13.30
2023-02-12T02:03:24.409Z,13.90
2023-02-12T02:06:21.356Z,12.30
2023-02-12T02:09:16.099Z,13.40
2023-02-12T02:12:26.962Z,12.60
2023-02-12T02:15:19.967Z,12.60
2023-02-12T02:18:20.150Z,13.90
2023-02-12T02:21:47.385Z,14.30
2023-02-12T02:25:00.825Z,14.20
2023-02-12T02:28:04.200Z,14.20
2023-02-12T02:30:59.410Z,13.60
2023-02-12T02:33:57.678Z,13.30
2023-02-12T02:37:00.776Z,13.00
2023-02-12T02:39:57.217Z,12.60
2023-02-12T02:42:56.911Z,11.40
2023-02-12T02:45:53.841Z,12.30
2023-02-12T02:48:52.077Z,12.00
2023-02-12T02:51:46.970Z,11.60
2023-02-12T02:54:47.605Z,11.70
2023-02-12T02:57:46.815Z,10.80
2023-02-12T03:00:44.470Z,11.80
2023-02-12T03:03:43.645Z,11.00
2023-02-12T03:06:47.785Z,11.70
2023-02-12T03:09:45.351Z,11.50
2023-02-12T03:12:42.757Z,11.30
2023-02-12T03:15:40.595Z,10.70
2023-02-12T03:18:37.700Z,10.50
2023-02-12T03:21:37.024Z,9.10
2023-02-12T03:24:36.265Z,9.30
2023-02-12T03:27:34.102Z,9.90
2023-02-12T03:30:22.196Z,9.80
2023-02-12T03:33:24.834Z,9.70
2023-02-12T03:36:28.634Z,8.90
2023-02-12T03:39:38.793Z,9.30
2023-02-12T03:42:39.081Z,5.70
2023-02-12T03:45:45.334Z,5.30
2023-02-12T03:48:44.215Z,3.90
2023-02-12T03:51:40.972Z,3.40
2023-02-12T03:54:35.046Z,3.40
2023-02-12T03:57:34.245Z,2.80
2023-02-12T04:00:29.146Z,3.50
2023-02-12T04:03:22.846Z,3.40
2023-02-12T04:06:29.006Z,2.90
2023-02-12T04:09:23.482Z,3.40
2023-02-12T04:12:41.748Z,2.70
2023-02-12T04:16:03.921Z,3.00
2023-02-12T04:18:57.569Z,3.00
2023-02-12T04:22:03.975Z,3.00
2023-02-12T04:25:10.561Z,2.60
2023-02-12T04:28:31.165Z,2.70
2023-02-12T04:31:31.013Z,2.20
2023-02-12T04:34:33.190Z,2.30
2023-02-12T04:37:32.604Z,2.70
2023-02-12T04:40:27.140Z,2.70
2023-02-12T04:43:37.134Z,2.50
2023-02-12T04:46:30.111Z,2.50
2023-02-12T04:49:25.706Z,2.60
2023-02-12T04:52:18.670Z,2.50
2023-02-12T04:55:19.756Z,2.00
2023-02-12T04:58:12.879Z,2.40
2023-02-12T05:01:08.025Z,2.70
2023-02-12T05:04:01.273Z,2.70
2023-02-12T05:06:54.648Z,3.10
2023-02-12T05:09:40.350Z,3.00
2023-02-12T05:12:36.110Z,3.10
2023-02-12T05:15:29.449Z,2.80
2023-02-12T05:18:25.005Z,2.60
2023-02-12T05:21:20.069Z,2.70
2023-02-12T05:24:16.090Z,2.80
2023-02-12T05:27:09.408Z,2.80
2023-02-12T05:29:42.464Z,2.80
2023-02-12T05:32:35.322Z,3.20
2023-02-12T05:35:28.207Z,3.40
2023-02-12T05:38:14.226Z,3.40
2023-02-12T05:41:09.523Z,3.10
2023-02-12T05:44:02.943Z,3.60
2023-02-12T05:46:56.249Z,2.60
2023-02-12T05:49:49.501Z,2.50
2023-02-12T05:52:42.733Z,2.90
2023-02-12T05:55:24.642Z,2.80
2023-02-12T05:58:10.661Z,3.00
2023-02-12T06:01:04.380Z,2.80
2023-02-12T06:03:58.027Z,2.80
2023-02-12T06:06:49.348Z,2.50
2023-02-12T06:09:42.391Z,2.80
2023-02-12T06:12:28.240Z,2.80
2023-02-12T06:15:21.416Z,3.10
2023-02-12T06:18:15.516Z,4.10
2023-02-12T06:21:09.906Z,4.10
2023-02-12T06:24:02.927Z,4.40
2023-02-12T06:26:56.975Z,3.60
2023-02-12T06:29:50.083Z,3.20
2023-02-12T06:32:43.013Z,2.80
2023-02-12T06:35:37.988Z,3.60
2023-02-12T06:38:30.920Z,3.80
2023-02-12T06:41:24.720Z,3.30
2023-02-12T06:44:18.039Z,3.70
2023-02-12T06:47:11.119Z,3.70
2023-02-12T06:50:04.862Z,4.30
2023-02-12T06:52:57.746Z,4.50
2023-02-12T06:55:52.756Z,5.00
2023-02-12T06:58:46.878Z,5.10
2023-02-12T07:01:40.906Z,4.40
2023-02-12T07:04:28.003Z,3.10
2023-02-12T07:07:20.939Z,3.40
2023-02-12T07:10:09.579Z,3.00
2023-02-12T07:13:02.674Z,3.20
2023-02-12T07:15:55.906Z,2.90
2023-02-12T07:18:49.369Z,3.30
2023-02-12T07:21:42.470Z,4.50
2023-02-12T07:24:35.516Z,4.00
2023-02-12T07:27:28.702Z,4.70
2023-02-12T07:30:22.361Z,3.50
2023-02-12T07:33:15.110Z,3.00
2023-02-12T07:36:10.665Z,3.00
2023-02-12T07:39:03.871Z,3.10
2023-02-12T07:41:57.745Z,3.10
2023-02-12T07:44:51.461Z,3.50
2023-02-12T07:47:44.571Z,2.80
2023-02-12T07:50:37.516Z,3.20
2023-02-12T07:53:30.419Z,4.30
2023-02-12T07:56:18.252Z,6.10
2023-02-12T07:59:15.507Z,4.50
2023-02-12T08:02:08.557Z,4.10
2023-02-12T08:05:02.384Z,3.90
2023-02-12T08:07:55.315Z,3.80
2023-02-12T08:10:48.060Z,3.10
2023-02-12T08:13:41.887Z,5.20
2023-02-12T08:16:22.578Z,4.40
2023-02-12T08:19:20.469Z,4.00
2023-02-12T08:22:07.827Z,3.30
2023-02-12T08:25:00.916Z,2.90
2023-02-12T08:27:53.822Z,3.30
2023-02-12T08:30:46.954Z,3.60
2023-02-12T08:33:39.846Z,2.70
2023-02-12T08:36:37.139Z,3.00
2023-02-12T08:39:32.094Z,2.90
2023-02-12T08:42:25.858Z,2.90
2023-02-12T08:45:18.957Z,3.70
2023-02-12T08:48:12.057Z,3.70
2023-02-12T08:51:10.796Z,3.20
2023-02-12T08:53:53.014Z,3.30
2023-02-12T08:56:46.665Z,8.40
2023-02-12T08:59:39.601Z,6.40
2023-02-12T09:02:33.382Z,12.90
2023-02-12T09:05:09.573Z,9.20
2023-02-12T09:08:02.511Z,6.50
2023-02-12T09:10:56.776Z,5.80
2023-02-12T09:13:50.550Z,16.20
2023-02-12T09:16:47.835Z,12.00
2023-02-12T09:19:40.805Z,33.20
2023-02-12T09:22:38.231Z,23.30
2023-02-12T09:25:31.310Z,13.60
2023-02-12T09:28:33.000Z,9.00
2023-02-12T09:31:28.045Z,6.90
2023-02-12T09:34:21.964Z,8.10
2023-02-12T09:37:16.087Z,4.00
2023-02-12T09:40:18.097Z,5.30
2023-02-12T09:43:19.334Z,4.30
2023-02-12T09:46:20.508Z,3.90
2023-02-12T09:49:20.685Z,3.40
2023-02-12T09:52:18.855Z,4.80
2023-02-12T09:58:14.506Z,5.40
2023-02-12T10:01:15.115Z,4.80
2023-02-12T10:04:08.349Z,5.40
2023-02-12T10:07:09.435Z,4.40
2023-02-12T10:10:25.048Z,4.30
2023-02-12T10:13:35.247Z,4.00
2023-02-12T10:16:38.859Z,3.80
2023-02-12T10:19:51.872Z,9.60
2023-02-12T10:22:57.179Z,4.00
2023-02-12T10:25:55.360Z,3.70
2023-02-12T10:28:49.243Z,4.20
2023-02-12T10:31:45.361Z,3.60
2023-02-12T10:34:40.102Z,3.70
2023-02-12T10:37:38.943Z,4.40
2023-02-12T10:40:35.242Z,4.50
2023-02-12T10:43:21.049Z,4.50
2023-02-12T10:46:17.757Z,3.90
2023-02-12T10:49:13.481Z,4.00
2023-02-12T10:52:21.366Z,6.70
2023-02-12T10:55:04.628Z,6.70
2023-02-12T10:57:58.412Z,7.10
2023-02-12T11:01:02.229Z,7.10
2023-02-12T11:03:55.560Z,5.60
2023-02-12T11:07:14.582Z,13.00
2023-02-12T11:10:28.463Z,7.50
2023-02-12T11:13:29.423Z,5.60
2023-02-12T11:16:27.914Z,9.40
2023-02-12T11:19:26.103Z,6.90
2023-02-12T11:22:19.883Z,4.40
2023-02-12T11:25:27.936Z,5.50
2023-02-12T11:28:22.030Z,4.20
2023-02-12T11:31:24.962Z,4.00
2023-02-12T11:34:20.662Z,4.30
2023-02-12T11:37:19.814Z,7.60
2023-02-12T11:40:06.197Z,9.90
2023-02-12T11:43:00.936Z,6.00
2023-02-12T11:45:56.499Z,4.40
2023-02-12T11:48:50.270Z,5.10
2023-02-12T11:51:38.229Z,5.30
2023-02-12T11:54:24.578Z,7.30
2023-02-12T11:57:45.159Z,5.20
2023-02-12T12:00:35.584Z,5.50
2023-02-12T12:03:34.743Z,4.80
2023-02-12T12:06:34.365Z,5.10
2023-02-12T12:09:32.240Z,5.10
2023-02-12T12:12:33.199Z,5.80
2023-02-12T12:15:46.229Z,6.30
2023-02-12T12:19:06.044Z,6.00
2023-02-12T12:22:07.195Z,7.10
2023-02-12T12:25:06.892Z,7.20
2023-02-12T12:28:13.736Z,7.10
2023-02-12T12:31:13.759Z,6.70
2023-02-12T12:34:11.456Z,5.60
2023-02-12T12:37:27.976Z,5.50
2023-02-12T12:40:35.726Z,5.90
2023-02-12T12:43:50.020Z,5.40
2023-02-12T12:47:14.533Z,5.70
2023-02-12T12:50:36.078Z,6.20
2023-02-12T12:54:02.806Z,6.60
2023-02-12T12:57:06.798Z,6.20
2023-02-12T13:00:10.535Z,5.20
2023-02-12T13:03:38.956Z,4.00
2023-02-12T13:06:48.525Z,3.80
2023-02-12T13:10:09.929Z,4.50
2023-02-12T13:13:20.927Z,4.50
2023-02-12T13:16:23.049Z,6.90
2023-02-12T13:19:17.334Z,7.70
2023-02-12T13:22:18.457Z,7.50
2023-02-12T13:25:23.950Z,6.70
2023-02-12T13:28:24.192Z,7.20
2023-02-12T13:31:32.905Z,7.90
2023-02-12T13:34:29.799Z,8.30
2023-02-12T13:37:35.538Z,7.60
2023-02-12T13:43:20.510Z,7.10
2023-02-12T13:46:06.217Z,6.70
2023-02-12T13:49:02.207Z,6.50
2023-02-12T13:52:04.003Z,7.50
2023-02-12T13:55:03.227Z,6.70
2023-02-12T13:58:37.562Z,6.40
2023-02-12T14:01:12.251Z,14.20
2023-02-12T14:04:24.298Z,12.40
2023-02-12T14:07:18.690Z,9.30
2023-02-12T14:10:28.101Z,8.30
2023-02-12T14:13:28.163Z,6.40
2023-02-12T14:16:43.504Z,10.70
2023-02-12T14:19:54.008Z,11.20
2023-02-12T14:23:27.993Z,12.90
2023-02-12T14:26:08.595Z,13.20
2023-02-12T14:29:04.567Z,10.20
2023-02-12T14:31:58.498Z,8.30
2023-02-12T14:34:50.371Z,8.90
2023-02-12T14:37:45.160Z,8.60
2023-02-12T14:40:47.188Z,11.10
2023-02-12T14:43:54.771Z,11.90
2023-02-12T14:46:51.000Z,9.90
2023-02-12T14:49:42.420Z,10.40
2023-02-12T14:52:42.340Z,9.10
2023-02-12T14:55:36.781Z,8.00
2023-02-12T14:58:32.434Z,8.80
2023-02-12T15:01:34.924Z,7.70
2023-02-12T15:04:20.750Z,7.70
2023-02-12T15:07:18.503Z,9.70
2023-02-12T15:10:18.957Z,9.10
2023-02-12T15:13:26.923Z,12.70
2023-02-12T15:16:25.745Z,12.60
2023-02-12T15:19:31.862Z,13.40
2023-02-12T15:22:38.305Z,13.20
2023-02-12T15:25:33.620Z,14.00
2023-02-12T15:28:49.100Z,16.20
2023-02-12T15:31:42.880Z,15.40
2023-02-12T15:34:41.918Z,19.60
2023-02-12T15:37:35.841Z,18.50
2023-02-12T15:40:29.783Z,19.70
2023-02-12T15:43:22.909Z,18.50
2023-02-12T15:46:22.152Z,18.70
2023-02-12T15:49:23.525Z,16.40
2023-02-12T15:52:22.658Z,19.10
2023-02-12T15:55:20.178Z,18.80
2023-02-12T15:58:03.932Z,25.50
2023-02-12T16:00:51.131Z,33.40
2023-02-12T16:03:44.951Z,38.50
2023-02-12T16:06:39.010Z,48.70
2023-02-12T16:09:35.304Z,58.50
2023-02-12T16:14:53.988Z,66.70
2023-02-12T16:17:47.962Z,71.70
2023-02-12T16:20:32.406Z,64.90
2023-02-12T16:23:29.238Z,60.50
2023-02-12T16:26:20.609Z,73.30
2023-02-12T16:29:19.601Z,68.70
2023-02-12T16:32:05.798Z,66.60
2023-02-12T16:35:25.359Z,59.20
2023-02-12T16:38:41.620Z,53.60
2023-02-12T16:41:35.614Z,49.00
2023-02-12T16:44:34.698Z,55.80
2023-02-12T16:47:28.023Z,49.30
2023-02-12T16:50:23.946Z,48.30
2023-02-12T16:53:34.535Z,43.60
2023-02-12T16:56:29.434Z,42.40
2023-02-12T16:59:19.232Z,39.70
2023-02-12T17:02:15.147Z,35.50
2023-02-12T17:05:09.648Z,44.10
2023-02-12T17:07:46.582Z,41.60
2023-02-12T17:10:39.378Z,50.20
2023-02-12T17:13:30.817Z,55.70
2023-02-12T17:16:30.678Z,70.90
2023-02-12T17:19:24.366Z,77.90
2023-02-12T17:22:23.596Z,86.50
2023-02-12T17:25:17.004Z,91.00
2023-02-12T17:28:12.535Z,92.40
2023-02-12T17:31:06.403Z,88.90
2023-02-12T17:34:00.048Z,89.10
2023-02-12T17:36:53.536Z,93.30
2023-02-12T17:39:48.251Z,92.00
2023-02-12T17:42:41.178Z,91.10
2023-02-12T17:45:35.565Z,92.10
2023-02-12T17:48:26.905Z,90.20
2023-02-12T17:51:20.615Z,96.40
2023-02-12T17:54:14.037Z,97.30
2023-02-12T17:57:07.169Z,90.50
2023-02-12T17:59:59.943Z,97.40
2023-02-12T18:02:55.362Z,93.30
2023-02-12T18:05:48.285Z,96.20
2023-02-12T18:08:41.014Z,101.80
2023-02-12T18:11:33.681Z,98.20
2023-02-12T18:14:26.480Z,99.50
2023-02-12T18:17:19.447Z,99.70
2023-02-12T18:20:13.760Z,96.80
2023-02-12T18:23:06.615Z,102.00
2023-02-12T18:26:05.729Z,101.60
2023-02-12T18:28:59.807Z,96.40
2023-02-12T18:31:52.698Z,88.90
2023-02-12T18:34:45.718Z,87.90
2023-02-12T18:37:28.801Z,79.10
2023-02-12T18:40:22.069Z,72.80
2023-02-12T18:43:14.828Z,74.60
2023-02-12T18:46:12.359Z,67.70
2023-02-12T18:49:00.413Z,69.20
2023-02-12T18:51:45.950Z,58.90
2023-02-12T18:54:38.701Z,51.20
2023-02-12T18:57:23.961Z,50.60
2023-02-12T19:00:17.975Z,48.40
2023-02-12T19:02:53.834Z,47.20
2023-02-12T19:05:47.007Z,45.50
2023-02-12T19:08:29.994Z,42.90
2023-02-12T19:11:22.793Z,44.10
2023-02-12T19:14:17.708Z,44.60
2023-02-12T19:17:11.829Z,48.70
2023-02-12T19:20:04.793Z,56.50
2023-02-12T19:22:59.604Z,60.20
2023-02-12T19:25:52.375Z,59.90
2023-02-12T19:28:46.293Z,62.50
2023-02-12T19:31:41.280Z,68.90
2023-02-12T19:34:34.788Z,67.70
2023-02-12T19:37:27.603Z,92.70
2023-02-12T19:40:20.977Z,90.30
2023-02-12T19:43:12.906Z,85.80
2023-02-12T19:46:07.995Z,78.30
2023-02-12T19:49:04.701Z,89.70
2023-02-12T19:51:50.662Z,79.50
2023-02-12T19:54:45.372Z,77.90
2023-02-12T19:57:38.706Z,77.80
2023-02-12T20:00:32.699Z,78.10
2023-02-12T20:03:26.467Z,85.90
2023-02-12T20:06:28.618Z,87.60
2023-02-12T20:09:23.364Z,93.40
2023-02-12T20:12:09.415Z,94.10
2023-02-12T20:15:02.808Z,89.40
2023-02-12T20:17:56.182Z,78.20
2023-02-12T20:20:48.954Z,72.90
2023-02-12T20:23:41.872Z,73.40
2023-02-12T20:26:36.424Z,78.00
2023-02-12T20:29:29.408Z,92.70
2023-02-12T20:32:22.191Z,88.10
2023-02-12T20:35:15.571Z,79.60
2023-02-12T20:38:08.915Z,78.80
2023-02-12T20:41:05.023Z,80.60
2023-02-12T20:44:00.841Z,78.60
2023-02-12T20:46:57.193Z,78.20
2023-02-12T20:49:52.135Z,77.00
2023-02-12T20:52:45.334Z,81.90
2023-02-12T20:55:38.410Z,76.20
2023-02-12T20:58:31.445Z,72.80
2023-02-12T21:01:26.432Z,72.70
2023-02-12T21:04:20.667Z,69.70
2023-02-12T21:07:13.458Z,69.60
2023-02-12T21:10:06.989Z,72.50
2023-02-12T21:13:00.869Z,73.80
2023-02-12T21:15:55.395Z,72.50
2023-02-12T21:18:50.084Z,68.50
2023-02-12T21:21:45.564Z,65.80
2023-02-12T21:24:39.048Z,84.90
2023-02-12T21:27:32.272Z,69.70
2023-02-12T21:30:25.232Z,58.90
2023-02-12T21:33:17.939Z,50.50
2023-02-12T21:36:14.133Z,48.50
2023-02-12T21:39:08.420Z,44.50
2023-02-12T21:41:56.271Z,45.30
2023-02-12T21:44:49.160Z,42.70
2023-02-12T21:47:43.082Z,42.00
2023-02-12T21:50:37.965Z,40.40
2023-02-12T21:53:34.097Z,39.40
2023-02-12T21:56:27.799Z,38.70
2023-02-12T21:59:22.584Z,46.20
2023-02-12T22:02:15.435Z,47.70
2023-02-12T22:05:12.240Z,52.40
2023-02-12T22:08:05.302Z,52.50
2023-02-12T22:11:02.407Z,49.50
2023-02-12T22:13:55.361Z,51.00
2023-02-12T22:16:49.856Z,53.00
2023-02-12T22:19:42.122Z,68.20
2023-02-12T22:22:36.289Z,76.80
2023-02-12T22:25:19.286Z,56.00
2023-02-12T22:28:12.038Z,51.00
2023-02-12T22:31:08.328Z,48.40
2023-02-12T22:34:02.621Z,45.20
2023-02-12T22:36:55.645Z,44.20
2023-02-12T22:39:48.401Z,45.20
2023-02-12T22:42:41.150Z,42.80
2023-02-12T22:45:34.006Z,39.00
2023-02-12T22:48:28.323Z,40.00
2023-02-12T22:51:26.224Z,40.40
2023-02-12T22:57:12.872Z,40.20
2023-02-12T23:00:06.057Z,38.80
2023-02-12T23:02:58.799Z,40.30
2023-02-12T23:05:51.608Z,39.20
2023-02-12T23:08:37.994Z,37.70
2023-02-12T23:11:24.585Z,36.70
2023-02-12T23:14:17.660Z,33.00
2023-02-12T23:17:10.685Z,31.90
2023-02-12T23:20:03.470Z,30.40
2023-02-12T23:22:57.139Z,31.60
2023-02-12T23:25:50.261Z,35.60
2023-02-12T23:28:43.081Z,33.80
2023-02-12T23:31:36.680Z,32.50
2023-02-12T23:34:29.756Z,29.60
2023-02-12T23:37:21.170Z,30.50
2023-02-12T23:40:16.060Z,28.40
2023-02-12T23:43:07.651Z,28.00
2023-02-12T23:46:02.625Z,26.40
2023-02-12T23:48:55.488Z,25.10
2023-02-12T23:51:48.237Z,27.00
2023-02-12T23:54:33.661Z,27.80
2023-02-12T23:57:28.570Z,28.80
